Beijing Daxing International Airport

Airport
ICAO code: 
ZBAD
IATA Code: 
PKX
Summary
ICAO Region: 
APAC
Territory: 
Location: 
Tanchengcun, Beijing
Serving: 
Beijing
Elevation: 
98 ft
Coordinates: 
Aerial View: 
39° 30' 33.012" N, 116° 24' 38.016" E
Metar
Observation
ZBAD 020900Z 26003MPS CAVOK 09/M11 Q1015 NOSIG
Station
Beijing Daxing International Airport
Date/Time
2021-12-02 09:00:00
Wind direction
260°
Lowest cloud amount
clouds and visibility OK
Temperature
9°C
Dew point
-11°C
Humidity
23%
QNH
1015 hPa
Weather condition
n/a

Beijing Daxing International Airport, located on the border of Beijing and Langfang, Hebei Province, is Beijing's second international airport.

Climatology

Humid continental climate (Köppen climate classification Dwa).

Airport map: 
Aerial View: 

SKYbrary Partners:

Safety knowledge contributed by: